createdAt,value
2015-11-12T00:00:03.882Z,1.93
2015-11-12T00:00:17.178Z,1.93
2015-11-12T00:00:30.460Z,1.97
2015-11-12T00:00:43.757Z,1.93
2015-11-12T00:00:57.041Z,2.02
2015-11-12T00:01:10.306Z,1.94
2015-11-12T00:01:23.603Z,1.93
2015-11-12T00:01:36.885Z,1.94
2015-11-12T00:01:50.216Z,1.84
2015-11-12T00:02:03.513Z,1.94
2015-11-12T00:02:16.825Z,1.93
2015-11-12T00:02:30.106Z,1.98
2015-11-12T00:02:43.356Z,1.97
2015-11-12T00:02:56.624Z,1.9
2015-11-12T00:03:09.890Z,1.97
2015-11-12T00:03:23.155Z,1.97
2015-11-12T00:03:36.436Z,2.01
2015-11-12T00:03:49.749Z,2.04
2015-11-12T00:04:03.049Z,2.04
2015-11-12T00:04:16.408Z,2.01
2015-11-12T00:04:29.689Z,2.05
2015-11-12T00:04:42.955Z,2.02
2015-11-12T00:04:56.239Z,1.98
2015-11-12T00:05:09.521Z,1.89
2015-11-12T00:05:22.786Z,2.06
2015-11-12T00:05:36.052Z,2.02
2015-11-12T00:05:49.349Z,1.94
2015-11-12T00:06:02.633Z,2.05
2015-11-12T00:06:15.945Z,1.98
2015-11-12T00:06:29.242Z,2.08
2015-11-12T00:06:42.492Z,2.06
2015-11-12T00:06:55.776Z,1.97
2015-11-12T00:07:09.041Z,1.97
2015-11-12T00:07:22.322Z,1.94
2015-11-12T00:07:35.619Z,1.94
2015-11-12T00:07:48.916Z,1.97
2015-11-12T00:08:02.232Z,1.97
2015-11-12T00:08:15.529Z,1.97
2015-11-12T00:08:28.810Z,2.04
2015-11-12T00:08:42.122Z,1.94
2015-11-12T00:08:55.419Z,2.04
2015-11-12T00:09:08.719Z,1.93
2015-11-12T00:09:21.985Z,1.92
2015-11-12T00:09:35.266Z,2.02
2015-11-12T00:09:48.547Z,1.97
2015-11-12T00:10:01.815Z,1.92
2015-11-12T00:10:15.112Z,1.94
2015-11-12T00:10:28.393Z,1.94
2015-11-12T00:10:41.690Z,2.01
2015-11-12T00:10:54.955Z,1.92
2015-11-12T00:11:08.240Z,2.02
2015-11-12T00:11:21.521Z,2.05
2015-11-12T00:11:34.787Z,1.92
2015-11-12T00:11:48.068Z,2.05
2015-11-12T00:12:01.352Z,1.94
2015-11-12T00:12:14.649Z,1.97
2015-11-12T00:12:27.961Z,1.97
2015-11-12T00:12:41.274Z,1.97
2015-11-12T00:12:54.586Z,2.08
2015-11-12T00:13:07.855Z,2.04
2015-11-12T00:13:21.121Z,2.05
2015-11-12T00:13:34.402Z,1.93
2015-11-12T00:13:47.699Z,1.94
2015-11-12T00:14:00.964Z,2.06
2015-11-12T00:14:14.232Z,2.08
2015-11-12T00:14:27.545Z,1.93
2015-11-12T00:14:40.826Z,1.97
2015-11-12T00:14:54.123Z,1.97
2015-11-12T00:15:07.438Z,1.98
2015-11-12T00:15:20.751Z,1.94
2015-11-12T00:15:34.032Z,1.89
2015-11-12T00:15:47.298Z,1.9
2015-11-12T00:16:00.579Z,1.94
2015-11-12T00:16:13.846Z,1.94
2015-11-12T00:16:27.112Z,1.97
2015-11-12T00:16:40.378Z,2.05
2015-11-12T00:16:53.659Z,1.98
2015-11-12T00:17:06.960Z,1.94
2015-11-12T00:17:20.225Z,1.89
2015-11-12T00:17:33.569Z,1.94
2015-11-12T00:17:46.882Z,2.01
2015-11-12T00:18:00.007Z,1.97
2015-11-12T00:18:13.259Z,1.94
2015-11-12T00:18:26.524Z,1.9
2015-11-12T00:18:39.806Z,2.01
2015-11-12T00:18:53.071Z,2.05
2015-11-12T00:19:06.337Z,1.97
2015-11-12T00:19:19.621Z,1.97
2015-11-12T00:19:32.918Z,1.92
2015-11-12T00:19:46.230Z,1.92
2015-11-12T00:19:59.527Z,2.05
2015-11-12T00:20:12.795Z,1.93
2015-11-12T00:20:26.076Z,1.98
2015-11-12T00:20:39.342Z,1.92
2015-11-12T00:20:52.607Z,1.97
2015-11-12T00:21:05.889Z,1.94
2015-11-12T00:21:19.158Z,1.86
2015-11-12T00:21:32.455Z,1.97
2015-11-12T00:21:45.752Z,1.79
2015-11-12T00:21:59.049Z,1.84
2015-11-12T00:22:12.348Z,1.87
2015-11-12T00:22:25.613Z,1.83
2015-11-12T00:22:38.895Z,1.82
2015-11-12T00:22:52.160Z,1.84
2015-11-12T00:23:05.426Z,1.87
2015-11-12T00:23:18.695Z,1.86
2015-11-12T00:23:31.820Z,1.86
2015-11-12T00:23:45.116Z,1.83
2015-11-12T00:23:58.413Z,1.82
2015-11-12T00:24:11.710Z,1.82
2015-11-12T00:24:25.026Z,1.87
2015-11-12T00:24:38.182Z,1.94
2015-11-12T00:24:51.448Z,1.82
2015-11-12T00:25:04.713Z,1.84
2015-11-12T00:25:18.059Z,1.87
2015-11-12T00:25:31.325Z,1.82
2015-11-12T00:25:44.590Z,1.79
2015-11-12T00:25:57.903Z,1.79
2015-11-12T00:26:11.184Z,1.79
2015-11-12T00:26:24.484Z,1.86
2015-11-12T00:26:37.781Z,1.82
2015-11-12T00:26:51.078Z,1.84
2015-11-12T00:27:04.343Z,1.82
2015-11-12T00:27:17.627Z,1.83
2015-11-12T00:27:30.877Z,1.87
2015-11-12T00:27:44.143Z,1.86
2015-11-12T00:27:57.424Z,1.94
2015-11-12T00:28:10.690Z,1.83
2015-11-12T00:28:23.973Z,1.83
2015-11-12T00:28:37.270Z,1.76
2015-11-12T00:28:50.598Z,1.83
2015-11-12T00:29:03.926Z,1.86
2015-11-12T00:29:17.223Z,1.79
2015-11-12T00:29:30.507Z,1.86
2015-11-12T00:29:43.773Z,1.87
2015-11-12T00:29:57.054Z,1.89
2015-11-12T00:30:10.320Z,1.9
2015-11-12T00:30:23.589Z,1.87
2015-11-12T00:30:36.870Z,1.86
2015-11-12T00:30:50.151Z,1.82
2015-11-12T00:31:03.432Z,1.82
2015-11-12T00:31:16.729Z,1.86
2015-11-12T00:31:30.044Z,1.9
2015-11-12T00:31:43.169Z,1.84
2015-11-12T00:31:56.434Z,1.83
2015-11-12T00:32:09.700Z,1.92
2015-11-12T00:32:22.984Z,1.79
2015-11-12T00:32:36.265Z,1.84
2015-11-12T00:32:49.531Z,1.84
2015-11-12T00:33:02.812Z,1.92
2015-11-12T00:33:16.094Z,1.93
2015-11-12T00:33:29.378Z,1.82
2015-11-12T00:33:42.706Z,1.84
2015-11-12T00:33:56.034Z,1.87
2015-11-12T00:34:09.300Z,1.82
2015-11-12T00:34:22.581Z,1.83
2015-11-12T00:34:35.850Z,1.82
2015-11-12T00:34:49.115Z,1.9
2015-11-12T00:35:02.396Z,1.87
2015-11-12T00:35:15.662Z,1.84
2015-11-12T00:35:28.805Z,1.92
2015-11-12T00:35:42.102Z,1.9
2015-11-12T00:35:55.398Z,1.83
2015-11-12T00:36:08.727Z,1.87
2015-11-12T00:36:22.039Z,1.83
2015-11-12T00:36:35.309Z,1.83
2015-11-12T00:36:48.559Z,1.87
2015-11-12T00:37:01.840Z,1.82
2015-11-12T00:37:15.106Z,1.94
2015-11-12T00:37:28.358Z,1.83
2015-11-12T00:37:41.639Z,1.93
2015-11-12T00:37:54.904Z,1.94
2015-11-12T00:38:08.201Z,1.9
2015-11-12T00:38:21.498Z,1.83
2015-11-12T00:38:34.814Z,1.97
2015-11-12T00:38:48.157Z,1.93
2015-11-12T00:39:01.423Z,1.86
2015-11-12T00:39:14.704Z,1.89
2015-11-12T00:39:27.972Z,1.83
2015-11-12T00:39:41.238Z,1.83
2015-11-12T00:39:54.519Z,1.87
2015-11-12T00:40:07.784Z,1.87
2015-11-12T00:40:21.066Z,1.9
2015-11-12T00:40:34.366Z,1.83
2015-11-12T00:40:47.662Z,1.86
2015-11-12T00:41:00.975Z,1.83
2015-11-12T00:41:14.241Z,1.92
2015-11-12T00:41:27.525Z,1.83
2015-11-12T00:41:40.790Z,1.84
2015-11-12T00:41:54.040Z,1.82
2015-11-12T00:42:07.322Z,1.83
2015-11-12T00:42:20.619Z,1.92
2015-11-12T00:42:33.917Z,1.87
2015-11-12T00:42:47.214Z,1.82
2015-11-12T00:43:00.496Z,1.93
2015-11-12T00:43:13.777Z,1.93
2015-11-12T00:43:27.030Z,1.92
2015-11-12T00:43:40.295Z,1.92
2015-11-12T00:43:53.561Z,1.92
2015-11-12T00:44:06.827Z,1.79
2015-11-12T00:44:20.139Z,1.93
2015-11-12T00:44:33.423Z,1.9
2015-11-12T00:44:46.720Z,1.94
2015-11-12T00:45:00.033Z,1.84
2015-11-12T00:45:13.330Z,1.82
2015-11-12T00:45:26.611Z,1.9
2015-11-12T00:45:39.880Z,1.9
2015-11-12T00:45:53.145Z,1.89
2015-11-12T00:46:06.426Z,1.89
2015-11-12T00:46:19.692Z,1.92
2015-11-12T00:46:32.976Z,1.82
2015-11-12T00:46:46.273Z,1.79
2015-11-12T00:46:59.554Z,1.84
2015-11-12T00:47:12.867Z,1.93
2015-11-12T00:47:26.179Z,1.93
2015-11-12T00:47:39.494Z,1.9
2015-11-12T00:47:52.744Z,1.87
2015-11-12T00:48:06.025Z,1.94
2015-11-12T00:48:19.291Z,1.83
2015-11-12T00:48:32.403Z,1.93
2015-11-12T00:48:45.684Z,1.98
2015-11-12T00:48:58.966Z,1.93
2015-11-12T00:49:12.247Z,1.82
2015-11-12T00:49:25.544Z,1.84
2015-11-12T00:49:38.859Z,1.89
2015-11-12T00:49:52.172Z,1.9
2015-11-12T00:50:05.437Z,1.82
2015-11-12T00:50:18.703Z,1.84
2015-11-12T00:50:31.828Z,1.83
2015-11-12T00:50:45.097Z,1.93
2015-11-12T00:50:58.206Z,1.82
2015-11-12T00:51:11.487Z,1.82
2015-11-12T00:51:24.769Z,1.82
2015-11-12T00:51:38.053Z,1.83
2015-11-12T00:51:51.365Z,1.83
2015-11-12T00:52:04.678Z,1.82
2015-11-12T00:52:17.943Z,1.82
2015-11-12T00:52:31.225Z,1.79
2015-11-12T00:52:44.492Z,1.84
2015-11-12T00:52:57.758Z,1.83
2015-11-12T00:53:10.992Z,1.82
2015-11-12T00:53:24.117Z,1.89
2015-11-12T00:53:37.281Z,1.92
2015-11-12T00:53:50.281Z,1.92
2015-11-12T00:54:03.328Z,1.89
2015-11-12T00:54:16.125Z,1.92
2015-11-12T00:54:29.094Z,1.93
2015-11-12T00:54:42.050Z,1.9
2015-11-12T00:54:55.331Z,1.93
2015-11-12T00:55:08.613Z,1.89
2015-11-12T00:55:21.909Z,2.01
2015-11-12T00:55:35.224Z,2.01
2015-11-12T00:55:48.552Z,2.01
2015-11-12T00:56:01.818Z,1.97
2015-11-12T00:56:14.927Z,1.92
2015-11-12T00:56:28.193Z,1.97
2015-11-12T00:56:41.461Z,1.82
2015-11-12T00:57:08.899Z,1.87
2015-11-12T00:57:22.164Z,1.83
2015-11-12T00:57:35.446Z,1.83
2015-11-12T00:57:48.729Z,1.9
2015-11-12T00:58:02.041Z,1.86
2015-11-12T00:58:15.323Z,1.86
2015-11-12T00:58:28.588Z,1.93
2015-11-12T00:58:41.873Z,1.93
2015-11-12T00:58:55.123Z,1.94
2015-11-12T00:59:08.404Z,1.92
2015-11-12T00:59:21.701Z,2.04
2015-11-12T00:59:34.951Z,2.02
2015-11-12T00:59:48.250Z,2.01
2015-11-12T01:00:01.562Z,1.93
2015-11-12T01:00:14.859Z,1.9
2015-11-12T01:00:28.156Z,1.94
2015-11-12T01:00:41.441Z,1.93
2015-11-12T01:00:54.707Z,1.92
2015-11-12T01:01:07.988Z,2.02
2015-11-12T01:01:21.269Z,2.05
2015-11-12T01:01:34.535Z,2.04
2015-11-12T01:01:47.835Z,1.94
2015-11-12T01:02:01.132Z,1.94
2015-11-12T01:02:14.428Z,1.97
2015-11-12T01:02:27.741Z,1.94
2015-11-12T01:02:41.072Z,1.94
2015-11-12T01:02:54.338Z,1.93
2015-11-12T01:03:07.603Z,1.92
2015-11-12T01:03:20.885Z,1.92
2015-11-12T01:03:34.166Z,1.98
2015-11-12T01:03:47.433Z,1.97
2015-11-12T01:04:00.715Z,1.92
2015-11-12T01:04:13.996Z,1.98
2015-11-12T01:04:27.340Z,1.93
2015-11-12T01:04:40.637Z,1.93
2015-11-12T01:04:53.920Z,1.93
2015-11-12T01:05:07.185Z,1.92
2015-11-12T01:05:20.467Z,1.97
2015-11-12T01:05:33.748Z,1.82
2015-11-12T01:05:47.017Z,1.87
2015-11-12T01:06:00.313Z,1.83
2015-11-12T01:06:13.626Z,1.83
2015-11-12T01:06:26.970Z,1.82
2015-11-12T01:06:40.267Z,1.82
2015-11-12T01:06:53.535Z,1.79
2015-11-12T01:07:06.801Z,1.84
2015-11-12T01:07:20.082Z,1.9
2015-11-12T01:07:33.348Z,1.98
2015-11-12T01:07:46.616Z,1.9
2015-11-12T01:07:59.882Z,1.93
2015-11-12T01:08:13.163Z,1.97
2015-11-12T01:08:26.429Z,1.89
2015-11-12T01:08:39.741Z,1.92
2015-11-12T01:08:53.071Z,1.84
2015-11-12T01:09:06.368Z,1.97
2015-11-12T01:09:19.681Z,1.92
2015-11-12T01:09:32.946Z,1.84
2015-11-12T01:09:46.216Z,1.92
2015-11-12T01:09:59.482Z,1.83
2015-11-12T01:10:12.763Z,1.83
2015-11-12T01:10:26.029Z,1.92
2015-11-12T01:10:39.310Z,1.83
2015-11-12T01:10:52.593Z,1.86
2015-11-12T01:11:05.859Z,1.9
2015-11-12T01:11:19.156Z,1.83
2015-11-12T01:11:32.437Z,1.82
2015-11-12T01:11:45.702Z,1.82
2015-11-12T01:11:58.954Z,1.83
2015-11-12T01:12:12.236Z,1.84
2015-11-12T01:12:25.501Z,1.79
2015-11-12T01:12:38.767Z,1.83
2015-11-12T01:12:52.037Z,1.82
2015-11-12T01:13:05.333Z,1.83
2015-11-12T01:13:18.615Z,2.01
2015-11-12T01:13:31.927Z,1.97
2015-11-12T01:13:45.240Z,1.98
2015-11-12T01:13:58.585Z,1.98
2015-11-12T01:14:11.867Z,1.89
2015-11-12T01:14:25.132Z,1.93
2015-11-12T01:14:38.398Z,1.93
2015-11-12T01:14:51.682Z,2.05
2015-11-12T01:15:04.948Z,2.02
2015-11-12T01:15:18.229Z,1.92
2015-11-12T01:15:31.510Z,2.02
2015-11-12T01:15:44.651Z,2.06
2015-11-12T01:15:57.982Z,1.9
2015-11-12T01:16:11.263Z,1.9
2015-11-12T01:16:24.529Z,1.98
2015-11-12T01:16:37.810Z,1.97
2015-11-12T01:16:51.076Z,1.94
2015-11-12T01:17:04.359Z,2.04
2015-11-12T01:17:17.625Z,1.94
2015-11-12T01:17:30.906Z,2.05
2015-11-12T01:17:44.047Z,2.04
2015-11-12T01:17:57.331Z,2.02
2015-11-12T01:18:10.643Z,1.97
2015-11-12T01:18:23.909Z,1.92
2015-11-12T01:18:37.190Z,1.94
2015-11-12T01:18:50.471Z,1.89
2015-11-12T01:19:03.756Z,1.9
2015-11-12T01:19:17.037Z,1.93
2015-11-12T01:19:30.303Z,1.9
2015-11-12T01:19:43.599Z,1.92
2015-11-12T01:19:56.884Z,1.98
2015-11-12T01:20:10.181Z,1.98
2015-11-12T01:20:23.321Z,1.97
2015-11-12T01:20:36.649Z,1.97
2015-11-12T01:20:49.931Z,1.9
2015-11-12T01:21:03.214Z,1.98
2015-11-12T01:21:16.479Z,1.83
2015-11-12T01:21:29.761Z,1.92
2015-11-12T01:21:43.026Z,1.87
2015-11-12T01:21:56.292Z,1.83
2015-11-12T01:22:09.561Z,1.82
2015-11-12T01:22:22.873Z,1.84
2015-11-12T01:23:03.829Z,1.79
2015-11-12T01:23:18.423Z,1.79
2015-11-12T01:23:31.689Z,1.86
2015-11-12T01:23:44.954Z,1.93
2015-11-12T01:23:58.220Z,1.87
2015-11-12T01:24:11.503Z,1.79
2015-11-12T01:24:24.784Z,1.9
2015-11-12T01:24:38.081Z,1.92
2015-11-12T01:24:51.394Z,1.92
2015-11-12T01:25:04.709Z,1.83
2015-11-12T01:25:17.975Z,1.87
2015-11-12T01:25:31.256Z,1.98
2015-11-12T01:25:44.522Z,1.93
2015-11-12T01:25:57.803Z,1.93
2015-11-12T01:26:11.072Z,1.9
2015-11-12T01:26:24.368Z,1.86
2015-11-12T01:26:37.650Z,1.78
2015-11-12T01:27:18.417Z,1.79
2015-11-12T01:27:31.745Z,1.83
2015-11-12T01:27:45.011Z,1.83
2015-11-12T01:27:58.277Z,1.82
2015-11-12T01:28:11.561Z,1.82
2015-11-12T01:28:24.858Z,1.87
2015-11-12T01:28:38.139Z,1.83
2015-11-12T01:28:51.405Z,1.84
2015-11-12T01:29:04.686Z,1.89
2015-11-12T01:29:17.986Z,1.83
2015-11-12T01:29:31.267Z,1.84
2015-11-12T01:29:44.595Z,1.86
2015-11-12T01:29:57.908Z,1.83
2015-11-12T01:30:11.176Z,1.84
2015-11-12T01:30:24.473Z,1.82
2015-11-12T01:30:37.739Z,1.79
2015-11-12T01:30:51.004Z,1.84
2015-11-12T01:31:04.286Z,1.84
2015-11-12T01:31:17.553Z,1.87
2015-11-12T01:31:30.850Z,1.94
2015-11-12T01:31:44.147Z,1.94
2015-11-12T01:31:57.444Z,1.97
2015-11-12T01:32:10.585Z,2.06
2015-11-12T01:32:23.870Z,1.98
2015-11-12T01:32:37.151Z,1.98
2015-11-12T01:32:49.682Z,1.89
2015-11-12T01:33:02.948Z,1.89
2015-11-12T01:33:16.231Z,1.82
2015-11-12T01:33:29.512Z,1.87
2015-11-12T01:33:42.794Z,1.79
2015-11-12T01:33:56.075Z,1.82
2015-11-12T01:34:09.387Z,1.79
2015-11-12T01:34:22.719Z,1.93
2015-11-12T01:34:35.984Z,1.94
2015-11-12T01:34:49.265Z,1.94
2015-11-12T01:35:02.531Z,1.84
2015-11-12T01:35:15.799Z,1.93
2015-11-12T01:35:29.080Z,1.93
2015-11-12T01:35:42.346Z,1.94
2015-11-12T01:35:55.627Z,1.93
2015-11-12T01:36:08.939Z,2.06
2015-11-12T01:36:22.255Z,1.94
2015-11-12T01:36:35.583Z,1.94
2015-11-12T01:36:48.864Z,1.97
2015-11-12T01:37:02.130Z,1.92
2015-11-12T01:37:15.411Z,1.83
2015-11-12T01:37:28.680Z,1.9
2015-11-12T01:37:41.961Z,1.87
2015-11-12T01:37:55.227Z,1.92
2015-11-12T01:38:08.492Z,1.93
2015-11-12T01:38:21.776Z,1.93
2015-11-12T01:38:35.073Z,1.92
2015-11-12T01:38:48.401Z,1.89
2015-11-12T01:39:01.698Z,1.97
2015-11-12T01:39:14.964Z,1.98
2015-11-12T01:39:28.247Z,1.97
2015-11-12T01:39:41.528Z,1.97
2015-11-12T01:39:54.810Z,1.97
2015-11-12T01:40:08.075Z,1.92
2015-11-12T01:40:21.344Z,1.94
2015-11-12T01:40:34.485Z,1.92
2015-11-12T01:40:47.781Z,2.01
2015-11-12T01:41:01.094Z,1.92
2015-11-12T01:41:14.391Z,1.97
2015-11-12T01:41:27.659Z,1.94
2015-11-12T01:41:40.925Z,1.92
2015-11-12T01:41:54.206Z,1.92
2015-11-12T01:42:07.472Z,1.97
2015-11-12T01:42:20.755Z,1.9
2015-11-12T01:42:34.021Z,1.84
2015-11-12T01:42:47.302Z,1.9
2015-11-12T01:43:00.583Z,1.97
2015-11-12T01:43:13.911Z,1.9
2015-11-12T01:43:27.196Z,1.82
2015-11-12T01:43:40.461Z,1.82
2015-11-12T01:43:53.743Z,1.86
2015-11-12T01:44:07.008Z,1.84
2015-11-12T01:44:20.305Z,1.93
2015-11-12T01:44:33.574Z,1.84
2015-11-12T01:44:46.855Z,1.87
2015-11-12T01:45:00.136Z,1.82
2015-11-12T01:45:13.417Z,1.82
2015-11-12T01:45:26.717Z,1.87
2015-11-12T01:45:40.014Z,1.98
2015-11-12T01:45:53.295Z,1.92
2015-11-12T01:46:06.561Z,1.89
2015-11-12T01:46:19.827Z,1.92
2015-11-12T01:46:33.111Z,1.93
2015-11-12T01:46:46.377Z,2.01
2015-11-12T01:46:59.642Z,1.9
2015-11-12T01:47:12.752Z,1.98
2015-11-12T01:47:26.050Z,1.93
2015-11-12T01:47:39.363Z,1.93
2015-11-12T01:47:52.675Z,1.93
2015-11-12T01:48:05.988Z,1.92
2015-11-12T01:48:19.285Z,1.92
2015-11-12T01:48:32.584Z,2.04
2015-11-12T01:48:45.834Z,1.93
2015-11-12T01:48:59.099Z,1.92
2015-11-12T01:49:12.365Z,1.94
2015-11-12T01:49:25.650Z,1.93
2015-11-12T01:49:38.916Z,1.93
2015-11-12T01:49:52.197Z,1.89
2015-11-12T01:50:05.478Z,1.93
2015-11-12T01:50:18.760Z,1.97
2015-11-12T01:50:32.074Z,1.98
2015-11-12T01:50:45.402Z,1.93
2015-11-12T01:50:58.715Z,1.98
2015-11-12T01:51:11.996Z,1.97
2015-11-12T01:51:25.280Z,1.93
2015-11-12T01:51:38.546Z,1.93
2015-11-12T01:51:51.843Z,1.94
2015-11-12T01:52:05.108Z,1.9
2015-11-12T01:52:18.374Z,1.9
2015-11-12T01:52:31.657Z,1.94
2015-11-12T01:52:44.938Z,1.94
2015-11-12T01:52:58.235Z,1.93
2015-11-12T01:53:11.563Z,1.94
2015-11-12T01:53:24.849Z,1.79
2015-11-12T01:53:38.114Z,1.79
2015-11-12T01:53:51.380Z,1.82
2015-11-12T01:54:04.661Z,1.84
2015-11-12T01:54:17.927Z,1.9
2015-11-12T01:54:31.194Z,1.87
2015-11-12T01:54:44.476Z,1.87
2015-11-12T01:54:57.601Z,1.79
2015-11-12T01:55:10.898Z,1.84
2015-11-12T01:55:24.212Z,1.86
2015-11-12T01:55:37.525Z,1.83
2015-11-12T01:55:50.790Z,1.83
2015-11-12T01:56:04.056Z,1.79
2015-11-12T01:56:17.353Z,1.82
2015-11-12T01:56:30.622Z,1.94
2015-11-12T01:56:43.904Z,1.84
2015-11-12T01:56:57.200Z,1.82
2015-11-12T01:57:10.341Z,1.78
2015-11-12T01:57:23.669Z,1.82
2015-11-12T01:57:36.937Z,1.94
2015-11-12T01:57:50.202Z,1.84
2015-11-12T01:58:03.484Z,1.86
2015-11-12T01:58:16.499Z,1.79
2015-11-12T01:58:29.877Z,1.84
2015-11-12T01:58:43.205Z,1.92
2015-11-12T01:58:56.393Z,1.82
2015-11-12T01:59:09.550Z,1.84
2015-11-12T01:59:22.925Z,1.93
2015-11-12T01:59:36.241Z,1.82
2015-11-12T01:59:49.506Z,1.78
2015-11-12T02:00:02.788Z,1.87
2015-11-12T02:00:16.038Z,1.86
2015-11-12T02:00:29.322Z,1.82
2015-11-12T02:00:42.447Z,1.94
2015-11-12T02:00:55.712Z,1.82
2015-11-12T02:01:08.994Z,1.83
2015-11-12T02:01:22.291Z,1.93
2015-11-12T02:01:35.605Z,1.84
2015-11-12T02:01:48.902Z,1.83
2015-11-12T02:02:02.168Z,1.89
2015-11-12T02:02:15.433Z,1.87
2015-11-12T02:02:28.699Z,1.86
2015-11-12T02:02:43.520Z,1.83
2015-11-12T02:02:56.786Z,1.89
2015-11-12T02:03:10.083Z,1.82
2015-11-12T02:03:23.364Z,1.86
2015-11-12T02:03:36.679Z,1.9
2015-11-12T02:03:49.992Z,1.84
2015-11-12T02:04:03.336Z,1.82
2015-11-12T02:04:16.601Z,1.82
2015-11-12T02:04:29.883Z,1.87
2015-11-12T02:04:43.150Z,1.83
2015-11-12T02:04:56.416Z,1.84
2015-11-12T02:05:09.697Z,1.82
2015-11-12T02:05:37.122Z,1.84
2015-11-12T02:05:50.278Z,1.79
2015-11-12T02:06:03.591Z,1.94
2015-11-12T02:06:16.888Z,1.93
2015-11-12T02:06:30.216Z,1.9
2015-11-12T02:06:43.484Z,1.79
2015-11-12T02:06:56.750Z,1.84
2015-11-12T02:07:10.031Z,1.76
2015-11-12T02:07:23.312Z,1.83
2015-11-12T02:07:36.594Z,1.82
2015-11-12T02:07:49.862Z,1.79
2015-11-12T02:08:03.190Z,1.84
2015-11-12T02:08:16.472Z,1.82
2015-11-12T02:08:29.737Z,1.87
2015-11-12T02:08:43.022Z,1.82
2015-11-12T02:08:56.272Z,1.82
2015-11-12T02:09:09.537Z,1.84
2015-11-12T02:09:22.803Z,1.83
2015-11-12T02:09:36.084Z,1.83
2015-11-12T02:09:49.383Z,1.69
2015-11-12T02:10:02.664Z,1.82
2015-11-12T02:10:15.945Z,1.84
2015-11-12T02:10:29.227Z,1.79
2015-11-12T02:10:42.480Z,1.74
2015-11-12T02:10:55.745Z,1.86
2015-11-12T02:11:09.027Z,1.86
2015-11-12T02:11:22.323Z,1.86
2015-11-12T02:11:35.620Z,1.83
2015-11-12T02:11:48.951Z,1.87
2015-11-12T02:12:02.201Z,1.84
2015-11-12T02:12:15.483Z,1.87
2015-11-12T02:12:28.795Z,1.79
2015-11-12T02:12:42.063Z,1.86
2015-11-12T02:12:55.344Z,1.84
2015-11-12T02:13:08.610Z,1.84
2015-11-12T02:13:21.875Z,1.79
2015-11-12T02:13:35.172Z,1.83
2015-11-12T02:13:48.488Z,1.82
2015-11-12T02:14:01.785Z,1.82
2015-11-12T02:14:15.113Z,1.84
2015-11-12T02:14:28.378Z,1.92
2015-11-12T02:14:41.644Z,1.93
2015-11-12T02:14:54.928Z,1.93
2015-11-12T02:15:08.194Z,1.94
2015-11-12T02:15:21.475Z,1.97
2015-11-12T02:15:34.741Z,1.97
2015-11-12T02:15:48.008Z,1.9
2015-11-12T02:16:01.290Z,1.98
2015-11-12T02:16:14.602Z,1.94
2015-11-12T02:16:27.899Z,1.97
2015-11-12T02:16:41.196Z,1.97
2015-11-12T02:16:54.464Z,2.04
2015-11-12T02:17:07.730Z,1.94
2015-11-12T02:17:20.996Z,2.02
2015-11-12T02:17:34.261Z,1.94
2015-11-12T02:17:47.530Z,2.08
2015-11-12T02:18:00.858Z,2.01
2015-11-12T02:18:14.155Z,1.98
2015-11-12T02:18:27.436Z,2.06
2015-11-12T02:18:40.764Z,1.94
2015-11-12T02:18:54.080Z,1.94
2015-11-12T02:19:07.361Z,1.93
2015-11-12T02:19:20.611Z,1.93
2015-11-12T02:19:33.892Z,1.79
2015-11-12T02:19:47.127Z,1.93
2015-11-12T02:20:00.379Z,1.9
2015-11-12T02:20:13.629Z,1.92
2015-11-12T02:20:26.926Z,1.97
2015-11-12T02:20:40.222Z,1.93
2015-11-12T02:20:53.508Z,1.94
2015-11-12T02:21:06.820Z,1.93
2015-11-12T02:21:20.148Z,1.93
2015-11-12T02:21:33.430Z,1.92
2015-11-12T02:21:46.695Z,2.05
2015-11-12T02:21:59.963Z,1.9
2015-11-12T02:22:13.228Z,2.04
2015-11-12T02:22:26.494Z,2.09
2015-11-12T02:22:39.760Z,2.02
2015-11-12T02:22:53.091Z,2.01
2015-11-12T02:23:06.388Z,2.06
2015-11-12T02:23:19.685Z,2.04
2015-11-12T02:23:32.981Z,2.05
2015-11-12T02:23:46.247Z,2.11
2015-11-12T02:23:59.530Z,1.98
2015-11-12T02:24:12.796Z,2.08
2015-11-12T02:24:26.077Z,2.05
2015-11-12T02:24:39.343Z,1.97
2015-11-12T02:24:52.640Z,2.08
2015-11-12T02:25:05.908Z,1.92
2015-11-12T02:25:19.205Z,1.98
2015-11-12T02:25:32.518Z,1.98
2015-11-12T02:25:45.830Z,1.97
2015-11-12T02:25:59.161Z,2.02
2015-11-12T02:26:12.427Z,1.9
2015-11-12T02:26:25.677Z,1.92
2015-11-12T02:26:38.943Z,1.94
2015-11-12T02:26:52.208Z,1.94
2015-11-12T02:27:05.492Z,1.93
2015-11-12T02:27:18.774Z,1.98
2015-11-12T02:27:32.086Z,2.09
2015-11-12T02:27:45.367Z,2.18
2015-11-12T02:27:58.682Z,2.16
2015-11-12T02:28:11.994Z,2.16
2015-11-12T02:28:25.307Z,2.16
2015-11-12T02:28:38.588Z,2.16
2015-11-12T02:28:51.869Z,2.2
2015-11-12T02:29:05.138Z,2.2
2015-11-12T02:29:18.419Z,2.12
2015-11-12T02:29:31.685Z,2.06
2015-11-12T02:29:44.966Z,2.09
2015-11-12T02:29:58.263Z,2.12
2015-11-12T02:30:11.579Z,2.02
2015-11-12T02:30:24.907Z,2.04
2015-11-12T02:30:38.172Z,2.01
2015-11-12T02:30:51.438Z,1.9
2015-11-12T02:31:04.721Z,1.93
2015-11-12T02:31:17.971Z,1.93
2015-11-12T02:31:31.268Z,1.97
2015-11-12T02:31:44.518Z,1.9
2015-11-12T02:31:57.799Z,1.97
2015-11-12T02:32:11.099Z,2.08
2015-11-12T02:32:24.380Z,2.09
2015-11-12T02:32:37.896Z,2.13
2015-11-12T02:32:51.162Z,2.11
2015-11-12T02:33:04.430Z,2.09
2015-11-12T02:33:17.712Z,2.15
2015-11-12T02:33:30.993Z,2.12
2015-11-12T02:33:44.243Z,2.06
2015-11-12T02:33:57.524Z,2.01
2015-11-12T02:34:10.824Z,2.08
2015-11-12T02:34:24.105Z,1.98
2015-11-12T02:34:37.418Z,2.01
2015-11-12T02:34:50.715Z,1.84
2015-11-12T02:35:04.011Z,1.82
2015-11-12T02:35:17.295Z,1.93
2015-11-12T02:35:30.576Z,1.93
2015-11-12T02:35:43.842Z,1.79
2015-11-12T02:35:57.107Z,1.83
2015-11-12T02:36:10.391Z,1.86
2015-11-12T02:36:23.673Z,1.83
2015-11-12T02:36:36.954Z,1.87
2015-11-12T02:36:50.235Z,1.94
2015-11-12T02:37:03.548Z,1.84
2015-11-12T02:37:16.863Z,1.84
2015-11-12T02:37:30.160Z,1.83
2015-11-12T02:37:43.441Z,1.83
2015-11-12T02:37:56.707Z,1.84
2015-11-12T02:38:09.990Z,1.82
2015-11-12T02:38:23.256Z,1.86
2015-11-12T02:38:36.537Z,1.83
2015-11-12T02:38:49.803Z,1.82
2015-11-12T02:39:03.115Z,1.86
2015-11-12T02:39:16.399Z,1.86
2015-11-12T02:39:29.712Z,1.86
2015-11-12T02:39:43.009Z,1.97
2015-11-12T02:39:56.353Z,1.94
2015-11-12T02:40:09.603Z,1.9
2015-11-12T02:40:22.887Z,1.82
2015-11-12T02:40:36.152Z,1.83
2015-11-12T02:40:49.418Z,1.9
2015-11-12T02:41:02.715Z,1.92
2015-11-12T02:41:15.999Z,1.92
2015-11-12T02:41:29.343Z,1.97
2015-11-12T02:41:42.593Z,1.97
2015-11-12T02:41:55.859Z,1.92
2015-11-12T02:42:09.124Z,1.94
2015-11-12T02:42:22.392Z,2.04
2015-11-12T02:42:35.689Z,1.98
2015-11-12T02:42:48.986Z,1.94
2015-11-12T02:43:02.282Z,2.05
2015-11-12T02:43:15.582Z,1.93
2015-11-12T02:43:28.895Z,1.93
2015-11-12T02:43:42.160Z,1.89
2015-11-12T02:43:55.442Z,1.89
2015-11-12T02:44:08.707Z,1.93
2015-11-12T02:44:21.976Z,1.97
2015-11-12T02:44:35.085Z,1.92
2015-11-12T02:44:48.367Z,1.93
2015-11-12T02:45:01.663Z,1.86
2015-11-12T02:45:14.945Z,1.84
2015-11-12T02:45:28.245Z,1.83
2015-11-12T02:45:41.557Z,1.82
2015-11-12T02:45:54.838Z,1.98
2015-11-12T02:46:08.120Z,1.92
2015-11-12T02:46:21.372Z,1.93
2015-11-12T02:46:34.637Z,1.97
2015-11-12T02:46:47.934Z,1.92
2015-11-12T02:47:01.200Z,1.93
2015-11-12T02:47:14.465Z,1.79
2015-11-12T02:47:27.750Z,1.79
2015-11-12T02:47:41.031Z,1.82
2015-11-12T02:47:54.359Z,1.84
2015-11-12T02:48:07.656Z,1.92
2015-11-12T02:48:20.956Z,2.01
2015-11-12T02:48:34.237Z,1.92
2015-11-12T02:48:47.503Z,1.94
2015-11-12T02:49:00.768Z,1.97
2015-11-12T02:49:14.049Z,1.97
2015-11-12T02:49:27.318Z,1.98
2015-11-12T02:49:40.568Z,2.11
2015-11-12T02:49:53.865Z,2.04
2015-11-12T02:50:07.146Z,2.05
2015-11-12T02:50:20.461Z,2.05
2015-11-12T02:50:33.773Z,2.08
2015-11-12T02:50:47.054Z,2.09
2015-11-12T02:51:00.304Z,2.04
2015-11-12T02:51:13.570Z,1.97
2015-11-12T02:51:26.854Z,1.98
2015-11-12T02:51:40.136Z,1.94
2015-11-12T02:51:53.432Z,2.05
2015-11-12T02:52:06.745Z,2.09
2015-11-12T02:52:20.045Z,1.94
2015-11-12T02:52:33.310Z,2.05
2015-11-12T02:52:46.592Z,2.05
2015-11-12T02:52:59.857Z,1.97
2015-11-12T02:53:13.123Z,1.92
2015-11-12T02:53:26.407Z,2.04
2015-11-12T02:53:39.657Z,1.94
2015-11-12T02:53:52.923Z,1.93
2015-11-12T02:54:06.188Z,1.92
2015-11-12T02:54:19.470Z,2.04
2015-11-12T02:54:32.754Z,2.06
2015-11-12T02:54:46.066Z,2.06
2015-11-12T02:54:59.332Z,2.18
2015-11-12T02:55:12.613Z,2.08
2015-11-12T02:55:26.617Z,2.09
2015-11-12T02:55:39.883Z,2.09
2015-11-12T02:55:53.165Z,1.93
2015-11-12T02:56:07.462Z,2.01
2015-11-12T02:56:24.141Z,2.05
2015-11-12T02:56:38.703Z,1.94
2015-11-12T02:56:52.031Z,1.9
2015-11-12T02:57:04.875Z,1.92
2015-11-12T02:57:18.047Z,1.89
2015-11-12T02:57:31.003Z,2.05
2015-11-12T02:57:44.112Z,1.92
2015-11-12T02:57:57.081Z,1.97
2015-11-12T02:58:10.034Z,1.98
2015-11-12T02:58:23.300Z,2.02
2015-11-12T02:58:36.083Z,1.97